Terminal Aerodrome Forecast
Issued by NWS

Home | Current Version | Previous Version | Text Only | Print | Product List | Glossary On
Versions: 1 2 3 4 5 6 7 8 9 10 11 12 13 14 15
000
FTUS46 KPDT 012320
TAFBDN
TAF
KBDN 012320Z 0200/0224 27008KT P6SM SCT250
     FM020400 23004KT P6SM SCT080 BKN200
     FM020600 21005KT P6SM BKN070
     FM021500 31011KT P6SM BKN090
     FM022100 32011G20KT P6SM SCT100=

USA.gov is the U.S. government's official web portal to all federal, state and local government web resources and services.